sensor_id;sensor_type;location;lat;lon;timestamp;pressure;altitude;pressure_sealevel;temperature;humidity
58385;BME280;44185;47.844;8.966;2023-02-28T00:01:37;96489.97;;;-3.21;99.34
58385;BME280;44185;47.844;8.966;2023-02-28T00:04:03;96500.53;;;-3.29;99.45
58385;BME280;44185;47.844;8.966;2023-02-28T00:06:28;96503.16;;;-3.31;100.00
58385;BME280;44185;47.844;8.966;2023-02-28T00:08:54;96492.66;;;-3.25;100.00
58385;BME280;44185;47.844;8.966;2023-02-28T00:11:20;96501.22;;;-3.22;99.71
58385;BME280;44185;47.844;8.966;2023-02-28T00:13:47;96493.59;;;-3.27;98.83
58385;BME280;44185;47.844;8.966;2023-02-28T00:16:16;96490.00;;;-3.23;99.82
58385;BME280;44185;47.844;8.966;2023-02-28T00:18:43;96498.69;;;-3.24;98.83
58385;BME280;44185;47.844;8.966;2023-02-28T00:21:08;96493.44;;;-3.22;99.40
58385;BME280;44185;47.844;8.966;2023-02-28T00:23:34;96487.34;;;-3.20;99.35
58385;BME280;44185;47.844;8.966;2023-02-28T00:26:00;96495.19;;;-3.23;99.74
58385;BME280;44185;47.844;8.966;2023-02-28T00:28:26;96481.31;;;-3.20;98.70
58385;BME280;44185;47.844;8.966;2023-02-28T00:30:51;96483.97;;;-3.24;98.91
58385;BME280;44185;47.844;8.966;2023-02-28T00:33:18;96483.94;;;-3.22;99.89
58385;BME280;44185;47.844;8.966;2023-02-28T00:35:43;96483.94;;;-3.22;99.20
58385;BME280;44185;47.844;8.966;2023-02-28T00:38:09;96484.09;;;-3.28;98.36
58385;BME280;44185;47.844;8.966;2023-02-28T00:40:35;96478.06;;;-3.29;98.51
58385;BME280;44185;47.844;8.966;2023-02-28T00:43:00;96481.44;;;-3.25;98.74
58385;BME280;44185;47.844;8.966;2023-02-28T00:45:25;96487.47;;;-3.25;98.75
58385;BME280;44185;47.844;8.966;2023-02-28T00:47:51;96474.69;;;-3.31;97.03
58385;BME280;44185;47.844;8.966;2023-02-28T00:50:18;96476.34;;;-3.28;98.67
58385;BME280;44185;47.844;8.966;2023-02-28T00:52:44;96478.13;;;-3.30;97.47
58385;BME280;44185;47.844;8.966;2023-02-28T00:55:10;96473.75;;;-3.28;98.10
58385;BME280;44185;47.844;8.966;2023-02-28T00:57:35;96476.34;;;-3.28;97.99
58385;BME280;44185;47.844;8.966;2023-02-28T01:00:01;96474.72;;;-3.32;97.67
58385;BME280;44185;47.844;8.966;2023-02-28T01:02:26;96472.06;;;-3.29;97.58
58385;BME280;44185;47.844;8.966;2023-02-28T01:04:52;96470.22;;;-3.24;97.96
58385;BME280;44185;47.844;8.966;2023-02-28T01:07:19;96464.25;;;-3.28;97.51
58385;BME280;44185;47.844;8.966;2023-02-28T01:09:44;96470.44;;;-3.33;97.43
58385;BME280;44185;47.844;8.966;2023-02-28T01:12:09;96470.41;;;-3.32;97.67
58385;BME280;44185;47.844;8.966;2023-02-28T01:14:35;96468.63;;;-3.30;98.35
58385;BME280;44185;47.844;8.966;2023-02-28T01:17:00;96461.81;;;-3.34;97.35
58385;BME280;44185;47.844;8.966;2023-02-28T01:19:26;96463.47;;;-3.31;98.50
58385;BME280;44185;47.844;8.966;2023-02-28T01:21:51;96466.91;;;-3.31;98.41
58385;BME280;44185;47.844;8.966;2023-02-28T01:24:18;96466.97;;;-3.32;98.06
58385;BME280;44185;47.844;8.966;2023-02-28T01:26:44;96473.00;;;-3.32;98.65
58385;BME280;44185;47.844;8.966;2023-02-28T01:29:10;96467.91;;;-3.35;98.26
58385;BME280;44185;47.844;8.966;2023-02-28T01:31:35;96476.59;;;-3.38;99.24
58385;BME280;44185;47.844;8.966;2023-02-28T01:34:01;96467.16;;;-3.40;98.41
58385;BME280;44185;47.844;8.966;2023-02-28T01:36:26;96465.34;;;-3.37;98.69
58385;BME280;44185;47.844;8.966;2023-02-28T01:38:52;96461.94;;;-3.39;99.40
58385;BME280;44185;47.844;8.966;2023-02-28T01:41:21;96462.84;;;-3.40;99.18
58385;BME280;44185;47.844;8.966;2023-02-28T01:43:59;96466.31;;;-3.41;98.57
58385;BME280;44185;47.844;8.966;2023-02-28T01:46:25;96468.84;;;-3.39;98.99
58385;BME280;44185;47.844;8.966;2023-02-28T01:48:53;96464.59;;;-3.42;98.58
58385;BME280;44185;47.844;8.966;2023-02-28T01:51:22;96469.78;;;-3.42;99.12
58385;BME280;44185;47.844;8.966;2023-02-28T01:53:53;96470.63;;;-3.40;99.47
58385;BME280;44185;47.844;8.966;2023-02-28T01:56:25;96468.91;;;-3.41;98.70
58385;BME280;44185;47.844;8.966;2023-02-28T01:58:53;96475.88;;;-3.44;98.89
58385;BME280;44185;47.844;8.966;2023-02-28T02:01:20;96469.75;;;-3.40;98.99
58385;BME280;44185;47.844;8.966;2023-02-28T02:03:46;96473.19;;;-3.40;99.16
58385;BME280;44185;47.844;8.966;2023-02-28T02:06:12;96466.31;;;-3.41;99.08
58385;BME280;44185;47.844;8.966;2023-02-28T02:08:38;96464.59;;;-3.40;99.38
58385;BME280;44185;47.844;8.966;2023-02-28T02:11:07;96460.38;;;-3.44;98.71
58385;BME280;44185;47.844;8.966;2023-02-28T02:13:50;96463.81;;;-3.44;98.93
58385;BME280;44185;47.844;8.966;2023-02-28T02:16:28;96465.50;;;-3.43;98.52
58385;BME280;44185;47.844;8.966;2023-02-28T02:19:07;96458.69;;;-3.46;98.66
58385;BME280;44185;47.844;8.966;2023-02-28T02:22:21;96446.63;;;-3.47;98.37
58385;BME280;44185;47.844;8.966;2023-02-28T02:25:08;96450.00;;;-3.44;98.60
58385;BME280;44185;47.844;8.966;2023-02-28T02:27:53;96455.25;;;-3.46;98.48
58385;BME280;44185;47.844;8.966;2023-02-28T02:30:55;96455.25;;;-3.46;98.48
58385;BME280;44185;47.844;8.966;2023-02-28T02:36:22;96444.03;;;-3.47;98.32
58385;BME280;44185;47.844;8.966;2023-02-28T02:38:52;96447.50;;;-3.48;99.01
58385;BME280;44185;47.844;8.966;2023-02-28T02:41:21;96450.91;;;-3.46;99.76
58385;BME280;44185;47.844;8.966;2023-02-28T02:43:52;96450.94;;;-3.47;98.53
58385;BME280;44185;47.844;8.966;2023-02-28T02:46:20;96457.03;;;-3.48;98.61
58385;BME280;44185;47.844;8.966;2023-02-28T02:48:47;96457.84;;;-3.48;99.51
58385;BME280;44185;47.844;8.966;2023-02-28T02:51:15;96450.13;;;-3.49;99.14
58385;BME280;44185;47.844;8.966;2023-02-28T02:53:47;96448.34;;;-3.47;99.67
58385;BME280;44185;47.844;8.966;2023-02-28T02:56:16;96443.22;;;-3.49;98.76
58385;BME280;44185;47.844;8.966;2023-02-28T02:58:44;96442.44;;;-3.52;99.59
58385;BME280;44185;47.844;8.966;2023-02-28T03:01:12;96445.03;;;-3.52;99.45
58385;BME280;44185;47.844;8.966;2023-02-28T03:03:40;96442.44;;;-3.51;100.00
58385;BME280;44185;47.844;8.966;2023-02-28T03:06:06;96442.44;;;-3.51;100.00
58385;BME280;44185;47.844;8.966;2023-02-28T03:08:35;96444.09;;;-3.50;100.00
58385;BME280;44185;47.844;8.966;2023-02-28T03:11:04;96443.34;;;-3.53;99.87
58385;BME280;44185;47.844;8.966;2023-02-28T03:13:52;96443.25;;;-3.50;99.39
58385;BME280;44185;47.844;8.966;2023-02-28T03:16:32;96448.44;;;-3.50;100.00
58385;BME280;44185;47.844;8.966;2023-02-28T03:19:06;96440.66;;;-3.49;99.46
58385;BME280;44185;47.844;8.966;2023-02-28T03:21:38;96445.84;;;-3.50;99.79
58385;BME280;44185;47.844;8.966;2023-02-28T03:24:08;96450.22;;;-3.52;99.87
58385;BME280;44185;47.844;8.966;2023-02-28T03:26:39;96440.66;;;-3.49;99.91
58385;BME280;44185;47.844;8.966;2023-02-28T03:29:12;96439.00;;;-3.51;99.06
58385;BME280;44185;47.844;8.966;2023-02-28T03:31:44;96438.06;;;-3.50;99.01
58385;BME280;44185;47.844;8.966;2023-02-28T03:34:15;96432.91;;;-3.50;98.76
58385;BME280;44185;47.844;8.966;2023-02-28T03:36:45;96426.06;;;-3.51;98.42
58385;BME280;44185;47.844;8.966;2023-02-28T03:39:16;96423.53;;;-3.54;98.73
58385;BME280;44185;47.844;8.966;2023-02-28T03:41:46;96420.91;;;-3.53;98.34
58385;BME280;44185;47.844;8.966;2023-02-28T03:44:16;96422.56;;;-3.50;98.92
58385;BME280;44185;47.844;8.966;2023-02-28T03:46:46;96425.13;;;-3.50;98.97
58385;BME280;44185;47.844;8.966;2023-02-28T03:49:16;96431.22;;;-3.51;98.54
58385;BME280;44185;47.844;8.966;2023-02-28T03:51:45;96439.84;;;-3.51;99.03
58385;BME280;44185;47.844;8.966;2023-02-28T03:54:16;96444.19;;;-3.53;98.99
58385;BME280;44185;47.844;8.966;2023-02-28T03:56:48;96440.78;;;-3.55;97.86
58385;BME280;44185;47.844;8.966;2023-02-28T03:59:20;96437.28;;;-3.52;97.88
58385;BME280;44185;47.844;8.966;2023-02-28T04:01:48;96431.25;;;-3.53;98.45
58385;BME280;44185;47.844;8.966;2023-02-28T04:04:15;96431.16;;;-3.50;97.91
58385;BME280;44185;47.844;8.966;2023-02-28T04:06:42;96439.06;;;-3.54;98.53
58385;BME280;44185;47.844;8.966;2023-02-28T04:09:10;96436.47;;;-3.54;97.73
58385;BME280;44185;47.844;8.966;2023-02-28T04:11:37;96444.25;;;-3.54;97.60
58385;BME280;44185;47.844;8.966;2023-02-28T04:14:05;96452.00;;;-3.54;97.67
58385;BME280;44185;47.844;8.966;2023-02-28T04:16:32;96456.28;;;-3.53;98.24
58385;BME280;44185;47.844;8.966;2023-02-28T04:18:57;96453.78;;;-3.57;97.73
58385;BME280;44185;47.844;8.966;2023-02-28T04:21:23;96444.31;;;-3.58;97.68
58385;BME280;44185;47.844;8.966;2023-02-28T04:23:48;96450.28;;;-3.55;96.97
58385;BME280;44185;47.844;8.966;2023-02-28T04:26:14;96447.75;;;-3.57;97.64
58385;BME280;44185;47.844;8.966;2023-02-28T04:28:39;96453.72;;;-3.53;97.43
58385;BME280;44185;47.844;8.966;2023-02-28T04:31:06;96457.25;;;-3.58;97.31
58385;BME280;44185;47.844;8.966;2023-02-28T04:33:32;96449.47;;;-3.58;96.63
58385;BME280;44185;47.844;8.966;2023-02-28T04:35:58;96456.38;;;-3.57;96.77
58385;BME280;44185;47.844;8.966;2023-02-28T04:38:24;96449.47;;;-3.56;97.13
58385;BME280;44185;47.844;8.966;2023-02-28T04:40:49;96445.13;;;-3.55;97.26
58385;BME280;44185;47.844;8.966;2023-02-28T04:43:15;96446.88;;;-3.56;96.77
58385;BME280;44185;47.844;8.966;2023-02-28T04:45:40;96442.56;;;-3.57;96.87
58385;BME280;44185;47.844;8.966;2023-02-28T04:48:07;96443.50;;;-3.60;96.66
58385;BME280;44185;47.844;8.966;2023-02-28T04:50:32;96442.53;;;-3.55;96.88
58385;BME280;44185;47.844;8.966;2023-02-28T04:52:58;96450.28;;;-3.54;97.36
58385;BME280;44185;47.844;8.966;2023-02-28T04:55:23;96448.56;;;-3.55;97.48
58385;BME280;44185;47.844;8.966;2023-02-28T04:57:49;96454.53;;;-3.53;96.44
58385;BME280;44185;47.844;8.966;2023-02-28T05:00:14;96464.88;;;-3.53;96.71
58385;BME280;44185;47.844;8.966;2023-02-28T05:02:40;96457.09;;;-3.51;97.00
58385;BME280;44185;47.844;8.966;2023-02-28T05:05:07;96457.19;;;-3.54;96.58
58385;BME280;44185;47.844;8.966;2023-02-28T05:07:33;96447.69;;;-3.55;96.35
58385;BME280;44185;47.844;8.966;2023-02-28T05:09:58;96465.00;;;-3.56;96.65
58385;BME280;44185;47.844;8.966;2023-02-28T05:12:24;96461.47;;;-3.53;96.99
58385;BME280;44185;47.844;8.966;2023-02-28T05:14:49;96470.03;;;-3.51;96.21
58385;BME280;44185;47.844;8.966;2023-02-28T05:17:15;96474.41;;;-3.53;97.18
58385;BME280;44185;47.844;8.966;2023-02-28T05:19:40;96475.28;;;-3.54;96.24
58385;BME280;44185;47.844;8.966;2023-02-28T05:22:13;96479.59;;;-3.53;96.52
58385;BME280;44185;47.844;8.966;2023-02-28T05:24:38;96485.63;;;-3.54;96.68
58385;BME280;44185;47.844;8.966;2023-02-28T05:27:04;96482.16;;;-3.53;96.46
58385;BME280;44185;47.844;8.966;2023-02-28T05:29:29;96483.81;;;-3.51;97.21
58385;BME280;44185;47.844;8.966;2023-02-28T05:31:55;96482.16;;;-3.53;96.93
58385;BME280;44185;47.844;8.966;2023-02-28T05:34:20;96483.00;;;-3.53;96.93
58385;BME280;44185;47.844;8.966;2023-02-28T05:36:45;96480.47;;;-3.54;96.48
58385;BME280;44185;47.844;8.966;2023-02-28T05:39:12;96475.22;;;-3.51;96.76
58385;BME280;44185;47.844;8.966;2023-02-28T05:41:41;96480.38;;;-3.51;96.91
58385;BME280;44185;47.844;8.966;2023-02-28T05:44:07;96485.56;;;-3.51;97.63
58385;BME280;44185;47.844;8.966;2023-02-28T05:46:33;96489.03;;;-3.52;96.84
58385;BME280;44185;47.844;8.966;2023-02-28T05:48:58;96486.44;;;-3.52;96.16
58385;BME280;44185;47.844;8.966;2023-02-28T05:51:24;96491.63;;;-3.52;95.76
58385;BME280;44185;47.844;8.966;2023-02-28T05:53:49;96489.81;;;-3.49;95.89
58385;BME280;44185;47.844;8.966;2023-02-28T05:56:16;96497.53;;;-3.47;96.72
58385;BME280;44185;47.844;8.966;2023-02-28T05:58:41;96503.50;;;-3.45;96.56
58385;BME280;44185;47.844;8.966;2023-02-28T06:01:21;96500.97;;;-3.47;95.80
58385;BME280;44185;47.844;8.966;2023-02-28T06:03:47;96505.13;;;-3.41;96.31
58385;BME280;44185;47.844;8.966;2023-02-28T06:06:12;96508.66;;;-3.43;96.50
58385;BME280;44185;47.844;8.966;2023-02-28T06:08:38;96507.78;;;-3.44;96.30
58385;BME280;44185;47.844;8.966;2023-02-28T06:11:04;96508.69;;;-3.45;96.53
58385;BME280;44185;47.844;8.966;2023-02-28T06:13:30;96508.69;;;-3.45;96.15
58385;BME280;44185;47.844;8.966;2023-02-28T06:15:56;96512.13;;;-3.44;95.81
58385;BME280;44185;47.844;8.966;2023-02-28T06:18:21;96512.16;;;-3.46;95.42
58385;BME280;44185;47.844;8.966;2023-02-28T06:20:52;96508.72;;;-3.47;96.55
58385;BME280;44185;47.844;8.966;2023-02-28T06:23:18;96517.19;;;-3.40;96.63
58385;BME280;44185;47.844;8.966;2023-02-28T06:25:44;96518.03;;;-3.39;95.61
58385;BME280;44185;47.844;8.966;2023-02-28T06:28:10;96525.78;;;-3.39;96.85
58385;BME280;44185;47.844;8.966;2023-02-28T06:30:38;96518.06;;;-3.41;96.74
58385;BME280;44185;47.844;8.966;2023-02-28T06:33:03;96522.41;;;-3.41;96.22
58385;BME280;44185;47.844;8.966;2023-02-28T06:35:29;96524.06;;;-3.39;96.28
58385;BME280;44185;47.844;8.966;2023-02-28T06:37:54;96523.13;;;-3.36;96.82
58385;BME280;44185;47.844;8.966;2023-02-28T06:40:19;96527.44;;;-3.35;96.34
58385;BME280;44185;47.844;8.966;2023-02-28T06:42:45;96531.75;;;-3.36;96.22
58385;BME280;44185;47.844;8.966;2023-02-28T06:45:11;96528.28;;;-3.35;95.63
58385;BME280;44185;47.844;8.966;2023-02-28T06:47:40;96539.56;;;-3.37;96.02
58385;BME280;44185;47.844;8.966;2023-02-28T06:50:06;96544.63;;;-3.34;96.04
58385;BME280;44185;47.844;8.966;2023-02-28T06:52:32;96546.47;;;-3.38;94.65
58385;BME280;44185;47.844;8.966;2023-02-28T06:54:58;96554.31;;;-3.41;94.33
58385;BME280;44185;47.844;8.966;2023-02-28T06:57:24;96553.38;;;-3.38;94.42
58385;BME280;44185;47.844;8.966;2023-02-28T06:59:49;96558.59;;;-3.40;94.20
58385;BME280;44185;47.844;8.966;2023-02-28T07:02:15;96557.81;;;-3.43;93.19
58385;BME280;44185;47.844;8.966;2023-02-28T07:04:42;96552.72;;;-3.47;93.63
58385;BME280;44185;47.844;8.966;2023-02-28T07:07:07;96560.41;;;-3.43;93.25
58385;BME280;44185;47.844;8.966;2023-02-28T07:09:33;96564.59;;;-3.39;94.20
58385;BME280;44185;47.844;8.966;2023-02-28T07:11:58;96574.94;;;-3.38;93.56
58385;BME280;44185;47.844;8.966;2023-02-28T07:14:24;96575.78;;;-3.37;93.86
58385;BME280;44185;47.844;8.966;2023-02-28T07:16:49;96575.94;;;-3.45;93.24
58385;BME280;44185;47.844;8.966;2023-02-28T07:19:14;96583.63;;;-3.40;93.92
58385;BME280;44185;47.844;8.966;2023-02-28T07:21:41;96574.97;;;-3.39;93.71
58385;BME280;44185;47.844;8.966;2023-02-28T07:24:07;96580.91;;;-3.36;93.91
58385;BME280;44185;47.844;8.966;2023-02-28T07:26:32;96582.53;;;-3.31;93.76
58385;BME280;44185;47.844;8.966;2023-02-28T07:28:58;96588.88;;;-3.43;94.16
58385;BME280;44185;47.844;8.966;2023-02-28T07:31:23;96594.75;;;-3.37;94.68
58385;BME280;44185;47.844;8.966;2023-02-28T07:33:48;96593.00;;;-3.36;94.22
58385;BME280;44185;47.844;8.966;2023-02-28T07:36:16;96590.41;;;-3.35;93.65
58385;BME280;44185;47.844;8.966;2023-02-28T07:38:44;96584.44;;;-3.38;93.84
58385;BME280;44185;47.844;8.966;2023-02-28T07:41:10;96592.41;;;-3.48;93.85
58385;BME280;44185;47.844;8.966;2023-02-28T07:43:36;96585.41;;;-3.42;93.80
58385;BME280;44185;47.844;8.966;2023-02-28T07:46:03;96586.31;;;-3.45;94.56
58385;BME280;44185;47.844;8.966;2023-02-28T07:48:28;96589.69;;;-3.41;94.89
58385;BME280;44185;47.844;8.966;2023-02-28T07:50:54;96584.47;;;-3.40;94.15
58385;BME280;44185;47.844;8.966;2023-02-28T07:53:20;96584.31;;;-3.33;94.52
58385;BME280;44185;47.844;8.966;2023-02-28T07:55:47;96587.88;;;-3.38;94.12
58385;BME280;44185;47.844;8.966;2023-02-28T07:58:12;96583.44;;;-3.32;94.97
58385;BME280;44185;47.844;8.966;2023-02-28T08:00:38;96585.13;;;-3.31;94.44
58385;BME280;44185;47.844;8.966;2023-02-28T08:03:03;96584.25;;;-3.30;94.14
58385;BME280;44185;47.844;8.966;2023-02-28T08:05:29;96590.94;;;-3.21;94.92
58385;BME280;44185;47.844;8.966;2023-02-28T08:07:54;96589.28;;;-3.24;94.32
58385;BME280;44185;47.844;8.966;2023-02-28T08:10:20;96589.28;;;-3.24;94.87
58385;BME280;44185;47.844;8.966;2023-02-28T08:12:47;96591.56;;;-3.13;94.21
58385;BME280;44185;47.844;8.966;2023-02-28T08:15:12;96598.41;;;-3.09;95.35
58385;BME280;44185;47.844;8.966;2023-02-28T08:17:38;96589.72;;;-3.08;94.88
58385;BME280;44185;47.844;8.966;2023-02-28T08:20:04;96601.13;;;-3.15;94.44
58385;BME280;44185;47.844;8.966;2023-02-28T08:22:30;96594.53;;;-3.27;94.70
58385;BME280;44185;47.844;8.966;2023-02-28T08:24:55;96603.88;;;-3.21;94.55
58385;BME280;44185;47.844;8.966;2023-02-28T08:27:20;96597.88;;;-3.24;94.29
58385;BME280;44185;47.844;8.966;2023-02-28T08:29:47;96596.94;;;-3.21;94.42
58385;BME280;44185;47.844;8.966;2023-02-28T08:32:13;96590.16;;;-3.25;93.78
58385;BME280;44185;47.844;8.966;2023-02-28T08:34:39;96597.03;;;-3.24;94.56
58385;BME280;44185;47.844;8.966;2023-02-28T08:37:04;96600.63;;;-3.30;95.19
58385;BME280;44185;47.844;8.966;2023-02-28T08:39:29;96609.13;;;-3.25;95.20
58385;BME280;44185;47.844;8.966;2023-02-28T08:41:55;96608.53;;;-3.35;94.69
58385;BME280;44185;47.844;8.966;2023-02-28T08:44:20;96617.03;;;-3.29;95.19
58385;BME280;44185;47.844;8.966;2023-02-28T08:46:47;96611.72;;;-3.25;95.41
58385;BME280;44185;47.844;8.966;2023-02-28T08:49:12;96617.47;;;-3.13;95.50
58385;BME280;44185;47.844;8.966;2023-02-28T08:51:38;96619.97;;;-3.08;94.80
58385;BME280;44185;47.844;8.966;2023-02-28T08:54:04;96615.66;;;-3.09;95.88
58385;BME280;44185;47.844;8.966;2023-02-28T08:56:29;96618.19;;;-3.06;95.64
58385;BME280;44185;47.844;8.966;2023-02-28T08:58:56;96620.88;;;-3.11;93.16
58385;BME280;44185;47.844;8.966;2023-02-28T09:01:23;96618.97;;;-3.03;93.02
58385;BME280;44185;47.844;8.966;2023-02-28T09:03:52;96612.38;;;-3.16;93.47
58385;BME280;44185;47.844;8.966;2023-02-28T09:06:19;96623.44;;;-3.09;94.00
58385;BME280;44185;47.844;8.966;2023-02-28T09:08:45;96618.44;;;-3.17;93.64
58385;BME280;44185;47.844;8.966;2023-02-28T09:11:11;96622.19;;;-3.29;93.90
58385;BME280;44185;47.844;8.966;2023-02-28T09:13:36;96634.78;;;-3.15;94.68
58385;BME280;44185;47.844;8.966;2023-02-28T09:16:04;96633.09;;;-3.16;93.78
58385;BME280;44185;47.844;8.966;2023-02-28T09:18:30;96638.16;;;-3.11;93.28
58385;BME280;44185;47.844;8.966;2023-02-28T09:20:57;96634.50;;;-3.03;93.67
58385;BME280;44185;47.844;8.966;2023-02-28T09:23:23;96634.38;;;-2.98;93.87
58385;BME280;44185;47.844;8.966;2023-02-28T09:25:51;96635.44;;;-3.05;92.98
58385;BME280;44185;47.844;8.966;2023-02-28T09:28:17;96631.78;;;-2.98;93.79
58385;BME280;44185;47.844;8.966;2023-02-28T09:30:44;96643.00;;;-2.97;93.59
58385;BME280;44185;47.844;8.966;2023-02-28T09:33:10;96639.56;;;-2.98;93.19
58385;BME280;44185;47.844;8.966;2023-02-28T09:35:36;96633.47;;;-2.97;93.64
58385;BME280;44185;47.844;8.966;2023-02-28T09:38:04;96629.94;;;-2.93;93.78
58385;BME280;44185;47.844;8.966;2023-02-28T09:40:30;96629.06;;;-2.93;93.91
58385;BME280;44185;47.844;8.966;2023-02-28T09:42:57;96629.03;;;-2.92;93.25
58385;BME280;44185;47.844;8.966;2023-02-28T09:45:29;96627.47;;;-2.97;92.55
58385;BME280;44185;47.844;8.966;2023-02-28T09:47:58;96635.88;;;-2.89;93.55
58385;BME280;44185;47.844;8.966;2023-02-28T09:50:30;96639.19;;;-2.84;92.88
58385;BME280;44185;47.844;8.966;2023-02-28T09:52:59;96636.56;;;-2.82;93.02
58385;BME280;44185;47.844;8.966;2023-02-28T09:55:30;96644.56;;;-2.92;93.46
58385;BME280;44185;47.844;8.966;2023-02-28T09:57:58;96648.63;;;-2.81;92.53
58385;BME280;44185;47.844;8.966;2023-02-28T10:00:30;96650.19;;;-2.74;93.05
58385;BME280;44185;47.844;8.966;2023-02-28T10:03:22;96656.03;;;-2.67;92.80
58385;BME280;44185;47.844;8.966;2023-02-28T10:05:52;96654.69;;;-2.47;93.91
58385;BME280;44185;47.844;8.966;2023-02-28T10:08:22;96661.47;;;-2.43;93.34
58385;BME280;44185;47.844;8.966;2023-02-28T10:10:54;96651.97;;;-2.42;91.50
58385;BME280;44185;47.844;8.966;2023-02-28T10:13:25;96651.25;;;-2.49;91.30
58385;BME280;44185;47.844;8.966;2023-02-28T10:15:54;96653.75;;;-2.44;92.15
58385;BME280;44185;47.844;8.966;2023-02-28T10:18:23;96648.66;;;-2.48;92.31
58385;BME280;44185;47.844;8.966;2023-02-28T10:20:50;96653.66;;;-2.41;93.00
58385;BME280;44185;47.844;8.966;2023-02-28T10:23:20;96655.63;;;-2.51;92.02
58385;BME280;44185;47.844;8.966;2023-02-28T10:25:50;96663.63;;;-2.59;91.96
58385;BME280;44185;47.844;8.966;2023-02-28T10:28:19;96671.75;;;-2.40;93.55
58385;BME280;44185;47.844;8.966;2023-02-28T10:30:47;96670.78;;;-2.36;93.25
58385;BME280;44185;47.844;8.966;2023-02-28T10:33:20;96663.69;;;-2.29;92.51
58385;BME280;44185;47.844;8.966;2023-02-28T10:35:47;96662.72;;;-2.25;92.68
58385;BME280;44185;47.844;8.966;2023-02-28T10:38:16;96662.06;;;-2.33;92.25
58385;BME280;44185;47.844;8.966;2023-02-28T10:40:42;96671.63;;;-2.35;92.28
58385;BME280;44185;47.844;8.966;2023-02-28T10:43:20;96676.47;;;-2.22;92.70
58385;BME280;44185;47.844;8.966;2023-02-28T10:45:55;96676.66;;;-2.29;91.99
58385;BME280;44185;47.844;8.966;2023-02-28T10:48:33;96673.13;;;-2.26;92.47
58385;BME280;44185;47.844;8.966;2023-02-28T10:51:00;96676.44;;;-2.21;92.26
58385;BME280;44185;47.844;8.966;2023-02-28T10:53:33;96666.97;;;-2.22;91.93
58385;BME280;44185;47.844;8.966;2023-02-28T10:56:01;96672.13;;;-2.20;92.14
58385;BME280;44185;47.844;8.966;2023-02-28T10:58:31;96672.88;;;-2.17;91.36
58385;BME280;44185;47.844;8.966;2023-02-28T11:00:58;96672.84;;;-2.15;91.77
58385;BME280;44185;47.844;8.966;2023-02-28T11:03:30;96682.06;;;-2.05;92.52
58385;BME280;44185;47.844;8.966;2023-02-28T11:05:56;96676.81;;;-2.03;91.42
58385;BME280;44185;47.844;8.966;2023-02-28T11:08:22;96674.50;;;-2.13;90.68
58385;BME280;44185;47.844;8.966;2023-02-28T11:10:54;96678.78;;;-2.12;90.88
58385;BME280;44185;47.844;8.966;2023-02-28T11:13:21;96678.47;;;-2.01;91.11
58385;BME280;44185;47.844;8.966;2023-02-28T11:15:53;96681.88;;;-1.98;91.25
58385;BME280;44185;47.844;8.966;2023-02-28T11:18:22;96678.69;;;-2.08;91.22
58385;BME280;44185;47.844;8.966;2023-02-28T11:20:50;96678.63;;;-2.07;90.19
58385;BME280;44185;47.844;8.966;2023-02-28T11:23:18;96678.31;;;-1.94;90.85
58385;BME280;44185;47.844;8.966;2023-02-28T11:25:48;96673.03;;;-1.91;90.17
58385;BME280;44185;47.844;8.966;2023-02-28T11:28:26;96676.53;;;-1.92;89.81
58385;BME280;44185;47.844;8.966;2023-02-28T11:31:09;96681.31;;;-1.78;90.75
58385;BME280;44185;47.844;8.966;2023-02-28T11:33:42;96671.41;;;-1.95;90.36
58385;BME280;44185;47.844;8.966;2023-02-28T11:36:11;96672.84;;;-1.85;90.00
58385;BME280;44185;47.844;8.966;2023-02-28T11:38:38;96672.75;;;-1.82;89.97
58385;BME280;44185;47.844;8.966;2023-02-28T11:41:14;96668.94;;;-1.70;89.44
58385;BME280;44185;47.844;8.966;2023-02-28T11:43:55;96667.13;;;-1.66;88.71
58385;BME280;44185;47.844;8.966;2023-02-28T11:46:31;96668.00;;;-1.67;90.16
58385;BME280;44185;47.844;8.966;2023-02-28T11:49:06;96663.50;;;-1.60;89.86
58385;BME280;44185;47.844;8.966;2023-02-28T11:51:44;96657.97;;;-1.49;89.69
58385;BME280;44185;47.844;8.966;2023-02-28T11:54:26;96662.50;;;-1.56;88.65
58385;BME280;44185;47.844;8.966;2023-02-28T11:56:56;96659.50;;;-1.42;90.26
58385;BME280;44185;47.844;8.966;2023-02-28T11:59:34;96663.78;;;-1.41;90.26
58385;BME280;44185;47.844;8.966;2023-02-28T12:02:20;96663.50;;;-1.31;88.98
58385;BME280;44185;47.844;8.966;2023-02-28T12:04:53;96659.63;;;-1.47;88.97
58385;BME280;44185;47.844;8.966;2023-02-28T12:07:32;96661.31;;;-1.46;89.28
58385;BME280;44185;47.844;8.966;2023-02-28T12:10:06;96678.13;;;-1.58;89.14
58385;BME280;44185;47.844;8.966;2023-02-28T12:12:42;96663.97;;;-1.47;90.25
58385;BME280;44185;47.844;8.966;2023-02-28T12:15:28;96662.94;;;-1.41;89.22
58385;BME280;44185;47.844;8.966;2023-02-28T12:18:13;96661.00;;;-1.35;88.53
58385;BME280;44185;47.844;8.966;2023-02-28T12:20:48;96660.25;;;-1.38;89.27
58385;BME280;44185;47.844;8.966;2023-02-28T12:23:26;96657.91;;;-1.46;88.92
58385;BME280;44185;47.844;8.966;2023-02-28T12:26:10;96660.94;;;-1.62;88.10
58385;BME280;44185;47.844;8.966;2023-02-28T12:28:41;96659.81;;;-1.53;89.22
58385;BME280;44185;47.844;8.966;2023-02-28T12:31:08;96662.84;;;-1.38;88.89
58385;BME280;44185;47.844;8.966;2023-02-28T12:33:41;96665.19;;;-1.30;88.46
58385;BME280;44185;47.844;8.966;2023-02-28T12:36:11;96656.06;;;-1.15;88.87
58385;BME280;44185;47.844;8.966;2023-02-28T12:38:40;96646.81;;;-1.24;87.86
58385;BME280;44185;47.844;8.966;2023-02-28T12:41:12;96654.84;;;-1.32;88.63
58385;BME280;44185;47.844;8.966;2023-02-28T12:43:42;96653.66;;;-1.21;88.22
58385;BME280;44185;47.844;8.966;2023-02-28T12:46:12;96657.53;;;-1.35;88.21
58385;BME280;44185;47.844;8.966;2023-02-28T12:48:42;96657.56;;;-1.08;88.03
58385;BME280;44185;47.844;8.966;2023-02-28T12:51:09;96652.06;;;-1.26;88.23
58385;BME280;44185;47.844;8.966;2023-02-28T12:53:42;96642.78;;;-1.33;86.94
58385;BME280;44185;47.844;8.966;2023-02-28T12:56:16;96645.22;;;-1.28;86.95
58385;BME280;44185;47.844;8.966;2023-02-28T12:58:47;96650.00;;;-1.14;88.48
58385;BME280;44185;47.844;8.966;2023-02-28T13:10:09;96658.31;;;-1.31;87.86
58385;BME280;44185;47.844;8.966;2023-02-28T13:12:35;96647.66;;;-1.24;88.84
58385;BME280;44185;47.844;8.966;2023-02-28T13:15:05;96651.31;;;-1.29;87.98
58385;BME280;44185;47.844;8.966;2023-02-28T13:17:32;96652.00;;;-1.24;88.30
58385;BME280;44185;47.844;8.966;2023-02-28T13:19:59;96653.00;;;-1.28;87.51